createdAt,value
2019-04-14T00:00:53.285Z,94713.02
2019-04-14T00:03:19.335Z,94703.69
2019-04-14T00:05:45.141Z,94703.81
2019-04-14T00:08:11.102Z,94703.30
2019-04-14T00:10:37.796Z,94698.89
2019-04-14T00:13:02.881Z,94695.39
2019-04-14T00:15:35.844Z,94696.31
2019-04-14T00:17:54.917Z,94690.98
2019-04-14T00:20:20.939Z,94693.14
2019-04-14T00:22:46.962Z,94686.69
2019-04-14T00:25:13.082Z,94685.65
2019-04-14T00:27:39.006Z,94679.11
2019-04-14T00:30:05.469Z,94683.10
2019-04-14T00:32:31.290Z,94678.69
2019-04-14T00:34:57.220Z,94680.02
2019-04-14T00:37:23.095Z,94674.78
2019-04-14T00:39:49.086Z,94674.78
2019-04-14T00:42:15.103Z,94670.78
2019-04-14T00:44:41.168Z,94668.66
2019-04-14T00:47:07.175Z,94666.78
2019-04-14T00:49:33.294Z,94667.73
2019-04-14T00:51:59.364Z,94661.98
2019-04-14T00:54:25.999Z,94663.32
2019-04-14T00:56:51.944Z,94666.40
2019-04-14T00:59:17.928Z,94664.75
2019-04-14T01:01:43.800Z,94669.67
2019-04-14T01:04:09.782Z,94667.95
2019-04-14T01:06:36.109Z,94663.54
2019-04-14T01:09:02.130Z,94661.80
2019-04-14T01:11:27.284Z,94662.20
2019-04-14T01:13:53.271Z,94650.20
2019-04-14T01:16:23.063Z,94658.20
2019-04-14T01:18:45.293Z,94660.45
2019-04-14T01:21:11.317Z,94667.13
2019-04-14T01:23:37.330Z,94668.46
2019-04-14T01:26:03.372Z,94665.80
2019-04-14T01:28:29.383Z,94666.30
2019-04-14T01:30:56.515Z,94669.38
2019-04-14T01:33:21.396Z,94667.75
2019-04-14T01:35:47.412Z,94666.84
2019-04-14T01:38:14.667Z,94665.09
2019-04-14T01:40:40.219Z,94662.52
2019-04-14T01:43:05.991Z,94654.52
2019-04-14T01:45:31.753Z,94658.10
2019-04-14T01:47:57.599Z,94657.72
2019-04-14T01:50:23.558Z,94657.72
2019-04-14T01:52:50.146Z,94662.64
2019-04-14T01:55:15.664Z,94657.81
2019-04-14T01:57:41.675Z,94660.39
2019-04-14T02:00:07.724Z,94656.39
2019-04-14T02:02:33.702Z,94658.10
2019-04-14T02:04:59.722Z,94654.23
2019-04-14T02:07:25.711Z,94655.56
2019-04-14T02:09:51.768Z,94655.15
2019-04-14T02:12:17.776Z,94660.06
2019-04-14T02:14:45.069Z,94656.98
2019-04-14T02:17:11.067Z,94658.32
2019-04-14T02:19:37.064Z,94653.91
2019-04-14T02:22:02.728Z,94652.19
2019-04-14T02:24:28.859Z,94658.86
2019-04-14T02:26:54.766Z,94651.24
2019-04-14T02:29:21.072Z,94643.78
2019-04-14T02:32:17.313Z,94652.19
2019-04-14T02:37:04.479Z,94645.52
2019-04-14T02:44:23.028Z,94638.03
2019-04-14T02:49:16.832Z,94642.03
2019-04-14T02:54:07.467Z,94644.28
2019-04-14T02:56:28.041Z,94634.95
2019-04-14T02:59:01.733Z,94643.58
2019-04-14T03:01:48.310Z,94651.08
2019-04-14T03:06:16.168Z,94644.91
2019-04-14T03:08:51.218Z,94652.00
2019-04-14T03:13:35.313Z,94652.91
2019-04-14T03:18:35.914Z,94655.99
2019-04-14T03:23:23.829Z,94662.66
2019-04-14T03:25:33.687Z,94661.33
2019-04-14T03:28:07.236Z,94658.75
2019-04-14T03:37:51.108Z,94663.67
2019-04-14T03:40:23.652Z,94657.13
2019-04-14T03:42:55.629Z,94668.63
2019-04-14T03:45:20.691Z,94663.80
2019-04-14T03:47:38.043Z,94666.47
2019-04-14T03:52:47.827Z,94664.63
2019-04-14T03:54:51.668Z,94666.88
2019-04-14T03:56:57.687Z,94666.88
2019-04-14T03:59:23.852Z,94669.22
2019-04-14T04:01:49.937Z,94672.30
2019-04-14T04:04:14.654Z,94671.89
2019-04-14T04:06:42.054Z,94669.64
2019-04-14T04:09:06.755Z,94678.55
2019-04-14T04:11:32.841Z,94678.97
2019-04-14T04:13:58.862Z,94678.46
2019-04-14T04:16:24.854Z,94683.29
2019-04-14T04:18:57.902Z,94681.42
2019-04-14T04:21:16.854Z,94684.91
2019-04-14T04:23:42.855Z,94684.08
2019-04-14T04:26:08.876Z,94681.83
2019-04-14T04:28:34.900Z,94681.83
2019-04-14T04:31:00.921Z,94680.41
2019-04-14T04:33:26.958Z,94682.66
2019-04-14T04:35:54.120Z,94682.13
2019-04-14T04:38:19.988Z,94682.95
2019-04-14T04:40:46.081Z,94683.87
2019-04-14T04:43:12.465Z,94689.20
2019-04-14T04:45:37.164Z,94688.79
2019-04-14T04:48:04.451Z,94694.95
2019-04-14T04:50:30.276Z,94694.44
2019-04-14T04:52:56.229Z,94694.86
2019-04-14T04:55:22.005Z,94691.77
2019-04-14T04:57:48.168Z,94687.78
2019-04-14T05:00:13.474Z,94690.95
2019-04-14T05:02:39.577Z,94692.98
2019-04-14T05:05:05.554Z,94691.23
2019-04-14T05:07:31.680Z,94690.31
2019-04-14T05:09:57.771Z,94695.23
2019-04-14T05:12:24.188Z,94694.86
2019-04-14T05:14:50.137Z,94689.39
2019-04-14T05:17:15.471Z,94689.39
2019-04-14T05:19:42.146Z,94695.14
2019-04-14T05:22:07.505Z,94695.65
2019-04-14T05:24:33.504Z,94690.23
2019-04-14T05:26:59.521Z,94690.64
2019-04-14T05:29:25.551Z,94699.05
2019-04-14T05:31:51.557Z,94698.92
2019-04-14T05:34:17.622Z,94701.30
2019-04-14T05:36:43.609Z,94696.39
2019-04-14T05:39:09.628Z,94696.89
2019-04-14T05:41:35.663Z,94699.05
2019-04-14T05:44:03.226Z,94695.05
2019-04-14T05:46:27.673Z,94697.18
2019-04-14T05:48:53.712Z,94695.84
2019-04-14T05:51:21.683Z,94694.93
2019-04-14T05:53:45.924Z,94695.97
2019-04-14T05:56:12.156Z,94700.67
2019-04-14T05:58:38.283Z,94695.22
2019-04-14T06:01:04.740Z,94699.34
2019-04-14T06:03:30.024Z,94692.38
2019-04-14T06:05:55.985Z,94695.97
2019-04-14T06:08:22.001Z,94692.55
2019-04-14T06:10:48.017Z,94694.93
2019-04-14T06:13:14.025Z,94697.18
2019-04-14T06:15:40.056Z,94698.01
2019-04-14T06:18:06.106Z,94695.75
2019-04-14T06:20:32.105Z,94697.50
2019-04-14T06:22:58.123Z,94701.09
2019-04-14T06:25:24.143Z,94703.63
2019-04-14T06:27:50.213Z,94698.71
2019-04-14T06:30:16.518Z,94702.30
2019-04-14T06:32:42.515Z,94707.54
2019-04-14T06:35:08.534Z,94709.67
2019-04-14T06:37:34.622Z,94716.45
2019-04-14T06:40:00.634Z,94710.84
2019-04-14T06:42:26.623Z,94712.55
2019-04-14T06:44:52.640Z,94716.17
2019-04-14T06:47:18.675Z,94715.22
2019-04-14T06:49:49.150Z,94716.17
2019-04-14T06:52:10.687Z,94721.09
2019-04-14T06:54:36.703Z,94719.34
2019-04-14T06:57:02.937Z,94714.93
2019-04-14T06:59:28.971Z,94716.55
2019-04-14T07:01:54.970Z,94716.88
2019-04-14T07:04:21.013Z,94713.67
2019-04-14T07:06:47.399Z,94719.95
2019-04-14T07:09:13.672Z,94719.33
2019-04-14T07:11:39.692Z,94723.41
2019-04-14T07:14:05.719Z,94729.80
2019-04-14T07:16:31.842Z,94716.55
2019-04-14T07:18:57.863Z,94730.83
2019-04-14T07:21:23.883Z,94728.67
2019-04-14T07:23:49.890Z,94727.75
2019-04-14T07:26:15.918Z,94729.59
2019-04-14T07:28:41.965Z,94732.67
2019-04-14T07:31:07.964Z,94725.18
2019-04-14T07:33:33.971Z,94732.67
2019-04-14T07:36:00.027Z,94734.92
2019-04-14T07:38:26.018Z,94738.92
2019-04-14T07:40:52.026Z,94734.01
2019-04-14T07:43:18.068Z,94731.75
2019-04-14T07:45:44.075Z,94730.42
2019-04-14T07:48:10.092Z,94732.67
2019-04-14T07:50:36.188Z,94734.01
2019-04-14T07:53:02.200Z,94731.34
2019-04-14T07:55:28.206Z,94726.84
2019-04-14T07:57:54.195Z,94728.97
2019-04-14T08:00:20.225Z,94727.54
2019-04-14T08:02:46.245Z,94726.20
2019-04-14T08:05:12.255Z,94716.45
2019-04-14T08:07:38.273Z,94718.91
2019-04-14T08:10:04.288Z,94715.00
2019-04-14T08:12:30.308Z,94721.28
2019-04-14T08:14:56.303Z,94713.67
2019-04-14T08:17:22.303Z,94715.12
2019-04-14T08:19:48.324Z,94717.80
2019-04-14T08:22:14.343Z,94714.20
2019-04-14T08:24:40.355Z,94708.75
2019-04-14T08:27:06.384Z,94702.30
2019-04-14T08:29:32.407Z,94712.24
2019-04-14T08:31:58.433Z,94700.24
2019-04-14T08:34:24.453Z,94699.83
2019-04-14T08:36:50.450Z,94698.08
2019-04-14T08:39:16.476Z,94696.12
2019-04-14T08:41:42.525Z,94693.86
2019-04-14T08:44:08.637Z,94688.53
2019-04-14T08:46:34.631Z,94691.61
2019-04-14T08:49:00.645Z,94691.61
2019-04-14T08:51:26.707Z,94685.45
2019-04-14T08:53:52.704Z,94681.45
2019-04-14T08:56:18.729Z,94687.11
2019-04-14T08:58:44.743Z,94688.44
2019-04-14T09:01:10.764Z,94676.94
2019-04-14T09:03:36.780Z,94682.69
2019-04-14T09:06:03.170Z,94678.69
2019-04-14T09:08:29.188Z,94671.90
2019-04-14T09:10:55.209Z,94674.98
2019-04-14T09:13:21.288Z,94678.06
2019-04-14T09:15:47.297Z,94677.23
2019-04-14T09:18:13.364Z,94674.19
2019-04-14T09:20:51.363Z,94678.19
2019-04-14T09:23:05.543Z,94685.14
2019-04-14T09:25:31.561Z,94681.43
2019-04-14T09:27:57.575Z,94680.64
2019-04-14T09:30:23.614Z,94682.56
2019-04-14T09:32:49.627Z,94680.22
2019-04-14T09:35:15.660Z,94677.14
2019-04-14T09:37:41.717Z,94678.47
2019-04-14T09:40:07.753Z,94679.81
2019-04-14T09:42:33.837Z,94681.55
2019-04-14T09:44:59.851Z,94685.43
2019-04-14T09:47:25.873Z,94679.17
2019-04-14T09:49:51.899Z,94677.97
2019-04-14T09:52:17.901Z,94681.55
2019-04-14T09:54:43.911Z,94682.34
2019-04-14T09:57:09.929Z,94675.30
2019-04-14T09:59:36.015Z,94675.68
2019-04-14T10:02:02.036Z,94676.92
2019-04-14T10:04:28.050Z,94673.43
2019-04-14T10:06:54.059Z,94667.30
2019-04-14T10:09:20.082Z,94665.84
2019-04-14T10:11:48.726Z,94663.17
2019-04-14T10:14:12.259Z,94664.00
2019-04-14T10:16:38.276Z,94666.67
2019-04-14T10:19:04.270Z,94660.80
2019-04-14T10:21:30.402Z,94669.62
2019-04-14T10:23:56.379Z,94665.21
2019-04-14T10:26:22.415Z,94668.70
2019-04-14T10:28:50.681Z,94667.66
2019-04-14T10:31:14.487Z,94662.33
2019-04-14T10:33:40.511Z,94670.74
2019-04-14T10:36:06.538Z,94667.66
2019-04-14T10:38:32.576Z,94670.65
2019-04-14T10:40:58.622Z,94672.69
2019-04-14T10:43:24.642Z,94663.77
2019-04-14T10:45:50.653Z,94664.14
2019-04-14T10:48:16.699Z,94666.02
2019-04-14T10:50:42.727Z,94663.77
2019-04-14T10:53:08.735Z,94667.13
2019-04-14T10:55:34.789Z,94667.55
2019-04-14T10:58:00.784Z,94664.05
2019-04-14T11:00:26.818Z,94669.67
2019-04-14T11:02:52.850Z,94673.27
2019-04-14T11:05:18.850Z,94670.59
2019-04-14T11:07:44.847Z,94667.83
2019-04-14T11:10:10.929Z,94674.09
2019-04-14T11:12:36.929Z,94672.75
2019-04-14T11:15:02.950Z,94679.33
2019-04-14T11:17:28.945Z,94672.53
2019-04-14T11:19:55.016Z,94672.95
2019-04-14T11:22:21.025Z,94672.03
2019-04-14T11:24:47.449Z,94674.70
2019-04-14T11:27:13.487Z,94675.11
2019-04-14T11:29:39.497Z,94674.57
2019-04-14T11:32:05.536Z,94676.31
2019-04-14T11:34:31.533Z,94672.73
2019-04-14T11:36:57.549Z,94673.44
2019-04-14T11:39:23.633Z,94669.84
2019-04-14T11:41:49.663Z,94666.77
2019-04-14T11:44:21.842Z,94665.84
2019-04-14T11:46:49.212Z,94673.34
2019-04-14T11:49:15.251Z,94665.97
2019-04-14T11:51:41.270Z,94661.75
2019-04-14T11:54:07.276Z,94663.88
2019-04-14T11:56:33.302Z,94663.88
2019-04-14T11:58:59.323Z,94662.45
2019-04-14T12:01:25.385Z,94665.63
2019-04-14T12:03:51.440Z,94662.55
2019-04-14T12:06:17.465Z,94655.30
2019-04-14T12:08:45.561Z,94659.69
2019-04-14T12:11:09.475Z,94654.67
2019-04-14T12:13:35.489Z,94655.88
2019-04-14T12:16:01.585Z,94658.73
2019-04-14T12:18:27.654Z,94654.11
2019-04-14T12:20:53.651Z,94652.36
2019-04-14T12:23:19.653Z,94654.11
2019-04-14T12:25:45.715Z,94654.52
2019-04-14T12:28:11.726Z,94649.38
2019-04-14T12:30:37.804Z,94638.30
2019-04-14T12:33:03.768Z,94649.16
2019-04-14T12:35:29.781Z,94645.66
2019-04-14T12:37:55.797Z,94636.02
2019-04-14T12:40:21.820Z,94635.89
2019-04-14T12:42:47.875Z,94636.81
2019-04-14T12:45:13.881Z,94638.56
2019-04-14T12:47:40.520Z,94633.63
2019-04-14T12:50:05.911Z,94626.45
2019-04-14T12:52:32.070Z,94621.00
2019-04-14T12:54:58.095Z,94625.82
2019-04-14T12:57:24.171Z,94633.61
2019-04-14T12:59:50.192Z,94621.09
2019-04-14T13:02:16.193Z,94620.55
2019-04-14T13:04:42.226Z,94625.80
2019-04-14T13:07:08.248Z,94633.48
2019-04-14T13:09:34.288Z,94619.56
2019-04-14T13:12:03.598Z,94621.25
2019-04-14T13:14:29.672Z,94622.50
2019-04-14T13:16:55.675Z,94622.81
2019-04-14T13:19:21.682Z,94617.98
2019-04-14T13:21:47.719Z,94615.22
2019-04-14T13:24:13.731Z,94615.92
2019-04-14T13:26:39.784Z,94608.33
2019-04-14T13:29:05.905Z,94605.85
2019-04-14T13:31:31.940Z,94614.37
2019-04-14T13:33:57.948Z,94613.35
2019-04-14T13:36:23.963Z,94614.14
2019-04-14T13:38:50.422Z,94623.20
2019-04-14T13:41:16.429Z,94609.86
2019-04-14T13:43:49.645Z,94617.45
2019-04-14T13:46:15.659Z,94619.70
2019-04-14T13:48:42.079Z,94617.23
2019-04-14T13:51:07.726Z,94615.89
2019-04-14T13:53:33.967Z,94623.27
2019-04-14T13:55:59.964Z,94626.34
2019-04-14T13:58:25.974Z,94624.09
2019-04-14T14:00:52.013Z,94627.05
2019-04-14T14:03:18.007Z,94624.38
2019-04-14T14:05:44.013Z,94627.59
2019-04-14T14:08:10.021Z,94631.88
2019-04-14T14:10:36.046Z,94625.20
2019-04-14T14:13:02.059Z,94634.55
2019-04-14T14:15:28.102Z,94627.05
2019-04-14T14:17:54.124Z,94633.72
2019-04-14T14:20:20.183Z,94634.73
2019-04-14T14:22:58.324Z,94641.28
2019-04-14T14:25:12.178Z,94638.52
2019-04-14T14:27:38.209Z,94639.44
2019-04-14T14:30:04.226Z,94639.12
2019-04-14T14:32:30.244Z,94635.34
2019-04-14T14:34:56.252Z,94644.05
2019-04-14T14:37:22.379Z,94641.38
2019-04-14T14:39:48.618Z,94641.89
2019-04-14T14:42:14.892Z,94643.73
2019-04-14T14:44:40.843Z,94639.73
2019-04-14T14:47:07.159Z,94645.89
2019-04-14T14:49:33.142Z,94648.84
2019-04-14T14:51:59.167Z,94653.67
2019-04-14T14:54:25.211Z,94649.95
2019-04-14T14:56:51.226Z,94654.70
2019-04-14T14:59:17.271Z,94654.09
2019-04-14T15:01:43.263Z,94659.20
2019-04-14T15:04:09.331Z,94657.58
2019-04-14T15:06:35.352Z,94659.84
2019-04-14T15:09:01.355Z,94663.84
2019-04-14T15:11:27.459Z,94658.16
2019-04-14T15:13:53.568Z,94670.58
2019-04-14T15:16:19.593Z,94671.00
2019-04-14T15:18:45.603Z,94668.04
2019-04-14T15:21:11.624Z,94674.78
2019-04-14T15:23:37.634Z,94674.05
2019-04-14T15:26:03.675Z,94673.13
2019-04-14T15:28:29.743Z,94673.92
2019-04-14T15:30:55.747Z,94674.97
2019-04-14T15:33:21.768Z,94677.23
2019-04-14T15:35:47.800Z,94671.98
2019-04-14T15:38:13.834Z,94677.73
2019-04-14T15:40:39.845Z,94677.23
2019-04-14T15:43:05.863Z,94674.27
2019-04-14T15:45:31.875Z,94678.66
2019-04-14T15:47:57.922Z,94673.95
2019-04-14T15:50:23.941Z,94677.67
2019-04-14T15:52:49.954Z,94677.95
2019-04-14T15:55:15.979Z,94679.41
2019-04-14T15:57:42.023Z,94686.50
2019-04-14T16:00:08.054Z,94691.52
2019-04-14T16:02:34.094Z,94694.95
2019-04-14T16:05:00.089Z,94695.04
2019-04-14T16:07:26.114Z,94695.16
2019-04-14T16:09:52.155Z,94692.18
2019-04-14T16:12:18.226Z,94698.98
2019-04-14T16:14:44.239Z,94692.81
2019-04-14T16:17:10.270Z,94703.07
2019-04-14T16:19:36.264Z,94701.86
2019-04-14T16:22:02.296Z,94698.17
2019-04-14T16:24:28.288Z,94706.88
2019-04-14T16:26:54.296Z,94712.22
2019-04-14T16:29:20.331Z,94709.55
2019-04-14T16:31:46.342Z,94710.59
2019-04-14T16:34:12.345Z,94711.93
2019-04-14T16:36:38.363Z,94715.94
2019-04-14T16:39:04.426Z,94720.06
2019-04-14T16:41:30.442Z,94728.06
2019-04-14T16:43:56.431Z,94725.91
2019-04-14T16:46:22.458Z,94724.16
2019-04-14T16:48:48.480Z,94730.83
2019-04-14T16:51:14.491Z,94728.67
2019-04-14T16:53:40.509Z,94738.01
2019-04-14T16:56:06.537Z,94735.88
2019-04-14T16:58:33.753Z,94724.71
2019-04-14T17:00:58.561Z,94737.09
2019-04-14T17:03:24.559Z,94736.80
2019-04-14T17:05:50.550Z,94737.21
2019-04-14T17:08:16.599Z,94744.68
2019-04-14T17:10:42.595Z,94741.31
2019-04-14T17:13:08.587Z,94740.80
2019-04-14T17:15:34.594Z,94745.72
2019-04-14T17:18:00.617Z,94748.69
2019-04-14T17:20:26.631Z,94749.09
2019-04-14T17:22:52.641Z,94754.84
2019-04-14T17:25:18.645Z,94758.14
2019-04-14T17:27:44.671Z,94759.06
2019-04-14T17:30:10.682Z,94762.15
2019-04-14T17:32:36.685Z,94768.41
2019-04-14T17:35:02.694Z,94769.73
2019-04-14T17:37:28.825Z,94771.08
2019-04-14T17:39:54.853Z,94776.12
2019-04-14T17:42:20.846Z,94777.33
2019-04-14T17:44:46.871Z,94776.91
2019-04-14T17:47:12.890Z,94776.53
2019-04-14T17:49:38.920Z,94781.34
2019-04-14T17:52:05.597Z,94783.08
2019-04-14T17:54:31.714Z,94782.80
2019-04-14T17:56:59.133Z,94786.67
2019-04-14T17:59:26.285Z,94794.58
2019-04-14T18:01:52.321Z,94794.27
2019-04-14T18:04:18.335Z,94798.39
2019-04-14T18:06:52.772Z,94793.97
2019-04-14T18:09:19.837Z,94805.06
2019-04-14T18:11:50.732Z,94799.31
2019-04-14T18:14:16.760Z,94802.90
2019-04-14T18:16:42.816Z,94805.28
2019-04-14T18:19:08.819Z,94802.10
2019-04-14T18:21:34.879Z,94807.82
2019-04-14T18:24:00.899Z,94811.03
2019-04-14T18:26:26.915Z,94815.03
2019-04-14T18:28:53.055Z,94813.50
2019-04-14T18:31:20.070Z,94809.59
2019-04-14T18:33:46.085Z,94816.17
2019-04-14T18:36:12.100Z,94820.17
2019-04-14T18:38:38.138Z,94822.42
2019-04-14T18:41:04.138Z,94823.44
2019-04-14T18:43:30.278Z,94823.02
2019-04-14T18:45:56.295Z,94819.23
2019-04-14T18:48:22.323Z,94820.16
2019-04-14T18:50:48.405Z,94817.98
2019-04-14T18:53:14.410Z,94823.45
2019-04-14T18:55:40.414Z,94831.88
2019-04-14T18:58:06.443Z,94831.45
2019-04-14T19:00:32.460Z,94828.88
2019-04-14T19:02:58.493Z,94831.04
2019-04-14T19:05:24.508Z,94827.96
2019-04-14T19:07:50.530Z,94827.45
2019-04-14T19:10:16.526Z,94835.05
2019-04-14T19:12:42.558Z,94836.38
2019-04-14T19:15:08.578Z,94835.45
2019-04-14T19:17:34.600Z,94841.30
2019-04-14T19:20:01.948Z,94839.05
2019-04-14T19:22:26.628Z,94833.80
2019-04-14T19:24:52.660Z,94840.38
2019-04-14T19:27:18.675Z,94840.26
2019-04-14T19:29:44.690Z,94838.00
2019-04-14T19:32:10.707Z,94843.34
2019-04-14T19:34:36.733Z,94844.27
2019-04-14T19:37:02.785Z,94846.84
2019-04-14T19:39:28.915Z,94849.30
2019-04-14T19:41:54.905Z,94855.05
2019-04-14T19:44:20.926Z,94851.97
2019-04-14T19:46:46.940Z,94850.64
2019-04-14T19:49:13.015Z,94851.05
2019-04-14T19:51:38.971Z,94848.80
2019-04-14T19:54:05.021Z,94848.38
2019-04-14T19:56:31.050Z,94849.30
2019-04-14T19:58:57.212Z,94847.14
2019-04-14T20:01:23.321Z,94848.38
2019-04-14T20:03:49.331Z,94851.56
2019-04-14T20:06:15.382Z,94856.89
2019-04-14T20:08:41.458Z,94857.72
2019-04-14T20:11:07.425Z,94859.05
2019-04-14T20:13:33.441Z,94859.98
2019-04-14T20:15:59.434Z,94863.56
2019-04-14T20:18:25.494Z,94862.55
2019-04-14T20:20:51.486Z,94861.31
2019-04-14T20:23:17.628Z,94859.05
2019-04-14T20:25:43.538Z,94864.90
2019-04-14T20:28:09.558Z,94863.56
2019-04-14T20:30:35.589Z,94860.39
2019-04-14T20:33:01.606Z,94859.05
2019-04-14T20:35:27.602Z,94865.73
2019-04-14T20:37:53.601Z,94867.98
2019-04-14T20:40:19.627Z,94864.39
2019-04-14T20:42:45.642Z,94865.31
2019-04-14T20:45:11.687Z,94865.73
2019-04-14T20:47:37.681Z,94859.05
2019-04-14T20:50:03.676Z,94864.39
2019-04-14T20:52:30.987Z,94868.18
2019-04-14T20:54:57.009Z,94866.02
2019-04-14T20:57:23.023Z,94868.69
2019-04-14T20:59:50.603Z,94867.35
2019-04-14T21:02:16.651Z,94871.36
2019-04-14T21:04:42.659Z,94872.28
2019-04-14T21:07:08.652Z,94876.69
2019-04-14T21:09:34.779Z,94870.56
2019-04-14T21:12:00.798Z,94871.77
2019-04-14T21:14:26.935Z,94871.77
2019-04-14T21:16:52.934Z,94874.85
2019-04-14T21:19:19.011Z,94872.19
2019-04-14T21:21:44.949Z,94865.92
2019-04-14T21:24:10.970Z,94874.85
2019-04-14T21:26:36.982Z,94875.68
2019-04-14T21:29:03.003Z,94871.14
2019-04-14T21:31:29.002Z,94870.34
2019-04-14T21:33:55.046Z,94871.27
2019-04-14T21:36:21.033Z,94871.36
2019-04-14T21:38:47.042Z,94872.28
2019-04-14T21:41:13.101Z,94875.48
2019-04-14T21:43:39.107Z,94879.48
2019-04-14T21:46:05.107Z,94877.32
2019-04-14T21:48:31.106Z,94878.66
2019-04-14T21:50:57.262Z,94877.45
2019-04-14T21:53:23.276Z,94877.45
2019-04-14T21:55:49.286Z,94875.28
2019-04-14T21:58:15.298Z,94881.53
2019-04-14T22:00:41.287Z,94883.79
2019-04-14T22:03:07.311Z,94883.91
2019-04-14T22:05:33.316Z,94878.16
2019-04-14T22:07:59.320Z,94882.16
2019-04-14T22:10:25.326Z,94878.58
2019-04-14T22:12:51.351Z,94878.79
2019-04-14T22:15:17.384Z,94881.46
2019-04-14T22:17:43.382Z,94882.38
2019-04-14T22:20:09.389Z,94881.05
2019-04-14T22:22:35.405Z,94878.47
2019-04-14T22:25:01.428Z,94875.00
2019-04-14T22:27:27.447Z,94880.34
2019-04-14T22:29:53.459Z,94873.67
2019-04-14T22:32:19.500Z,94876.84
2019-04-14T22:34:45.513Z,94877.77
2019-04-14T22:37:11.511Z,94871.09
2019-04-14T22:39:39.266Z,94870.80
2019-04-14T22:42:03.565Z,94872.55
2019-04-14T22:44:29.567Z,94871.72
2019-04-14T22:46:55.590Z,94865.55
2019-04-14T22:49:21.595Z,94872.64
2019-04-14T22:51:47.632Z,94871.43
2019-04-14T22:54:13.645Z,94869.68
2019-04-14T22:56:39.900Z,94868.34
2019-04-14T22:59:05.688Z,94868.34
2019-04-14T23:01:31.688Z,94864.84
2019-04-14T23:03:57.733Z,94862.30
2019-04-14T23:06:23.752Z,94862.59
2019-04-14T23:08:49.804Z,94861.89
2019-04-14T23:11:15.829Z,94866.40
2019-04-14T23:13:41.842Z,94862.30
2019-04-14T23:16:07.854Z,94864.65
2019-04-14T23:18:33.981Z,94867.85
2019-04-14T23:20:59.978Z,94866.11
2019-04-14T23:23:25.980Z,94864.27
2019-04-14T23:25:51.978Z,94865.28
2019-04-14T23:28:17.985Z,94871.03
2019-04-14T23:30:43.980Z,94869.28
2019-04-14T23:33:10.027Z,94869.28
2019-04-14T23:35:36.038Z,94872.86
2019-04-14T23:38:02.078Z,94871.53
2019-04-14T23:40:28.073Z,94872.07
2019-04-14T23:42:54.067Z,94866.83
2019-04-14T23:45:20.120Z,94871.75
2019-04-14T23:47:46.112Z,94868.16
2019-04-14T23:50:12.117Z,94863.45
2019-04-14T23:52:38.137Z,94862.03
2019-04-14T23:55:04.153Z,94864.78
2019-04-14T23:57:30.160Z,94854.42
2019-04-14T23:59:56.170Z,94858.12
